x

Columbia River Bar - 20nm West Of Columbia River Mouth (46029) Wave Buoy

3:50pm - Fri 29th Jul 2016 All times are PDT. -7 hours from GMT.

  • Sig Wave height 6.6ft
  • Swell Direction
  • Peak Period 9s
  • Average Period 6s
  • Wind
    18mph, 22mph gusts
  • Sea Temp 59°f
  • Air Temp 61°f
  • Sea Pressure 1017.5mb
  • Columbia River Bar - 20nm West Of Columbia River Mouth
  • Columbia River Bar - 20nm West Of Columbia River Mouth

More Historic Weather Station data

Upgrade to MSW Pro to gain access to the past 30 days of data for over 8000 Wavebouys and Weather Stations around the globe.

Join Pro

Comparision Forecast

View Surf forecast
   
Fri 07/29 3:50pm 6.5ft 9s 6s 18 22 mph 1017.5mb 59f 61f
2:50pm 6ft 8s 6s 16 18 mph 1017.5mb 60f 61f
1:50pm 6ft 8s 6s 13 16 mph 1017.8mb 59f 61f
12:50pm 6.5ft 8s 6s 11 16 mph 1017.7mb 58f 60f
11:50am 7ft 8s 6s 11 16 mph 1017.9mb 58f 60f
10:50am 7.5ft 8s 6s 16 20 mph 1017.7mb 58f 60f
9:50am 7ft 8s 6s 18 20 mph 1017.9mb 58f 60f
8:50am 7ft 8s 6s 13 18 mph 1017.9mb 58f 60f
7:50am 6ft 8s 6s 16 18 mph 1017.9mb 58f 60f
6:50am 6ft 8s 6s 16 18 mph 1017.8mb 58f 60f
5:50am 5.5ft 8s 6s 16 20 mph 1017.7mb 58f 60f
4:50am 6ft 8s 6s 18 20 mph 1017.9mb 58f 60f
3:50am 6ft 8s 6s 18 20 mph 1017.9mb 58f 61f
2:50am 5.5ft 8s 6s 13 16 mph 1018.4mb 58f 61f
1:50am 6ft 8s 6s 16 18 mph 1018.4mb 59f 61f
12:50am 6ft 8s 5s 18 22 mph 1018.2mb 59f 61f
Thu 07/28 11:50pm 6.5ft 8s 6s 18 22 mph 1018.4mb 59f 61f
10:50pm 6.5ft 8s 6s 20 25 mph 1018.5mb 59f 61f
9:50pm 7ft 8s 6s 18 22 mph 1018.6mb 59f 61f
8:50pm 7ft 8s 6s 18 22 mph 1018.3mb 59f 60f
7:50pm 7ft 8s 6s 20 25 mph 1018.4mb 60f 60f
6:50pm 6ft 8s 5s 20 25 mph 1018.6mb 60f 61f
5:50pm 5ft 8s 5s 20 25 mph 1018.9mb 60f 61f
3:50pm 5ft 8s 6s 16 20 mph 1019.6mb 60f 61f
2:50pm 5.5ft 8s 6s 16 20 mph 1020mb 60f 61f
1:50pm 6ft 8s 6s 11 13 mph 1020.7mb 59f 60f
12:50pm 6.5ft 8s 6s 18 20 mph 1020.9mb 58f 61f
10:50am 7ft 8s 6s 16 18 mph 1021.1mb 59f 60f
9:50am 6.5ft 8s 6s 16 18 mph 1021.4mb 60f 60f
8:50am 6ft 8s 6s 18 20 mph 1021.3mb 60f 60f
7:50am 6ft 8s 6s 16 22 mph 1021.4mb 59f 59f
6:50am 6ft 8s 5s 18 20 mph 1021.3mb 60f 59f
5:50am 6ft 6s 5s 18 22 mph 1021.1mb 60f 59f
4:50am 5.5ft 7s 5s 18 22 mph 1021.1mb 60f 60f
3:50am 6ft 8s 5s 20 25 mph 1021.2mb 60f 60f
2:50am 5.5ft 8s 5s 20 27 mph 1020.8mb 61f 60f
1:50am 5.5ft 8s 5s 18 22 mph 1021.1mb 61f 60f
12:50am 6ft 7s 5s 18 20 mph 1021.3mb 61f 61f
Wed 07/27 11:50pm 6ft 8s 5s 20 25 mph 1021.5mb 61f 61f
10:50pm 6.5ft 8s 6s 18 22 mph 1021.7mb 61f 61f
9:50pm 6ft 8s 5s 20 25 mph 1021.2mb 61f 61f
8:50pm 7ft 8s 6s 20 25 mph 1020.8mb 61f 61f
7:50pm 6ft 8s 5s 18 22 mph 1020.7mb 61f 61f
6:50pm 6ft 8s 6s 20 25 mph 1021.1mb 61f 61f
5:50pm 5.5ft 8s 6s 20 22 mph 1021.2mb 61f 61f
4:50pm 5.5ft 8s 5s 18 22 mph 1021.6mb 61f 61f
3:50pm 5ft 8s 6s 18 22 mph 1021.6mb 62f 61f
2:50pm 6ft 8s 5s 18 20 mph 1021.8mb 60f 60f
1:50pm 6ft 8s 5s 18 20 mph 1022mb 60f 60f
12:50pm 5.5ft 7s 6s 16 20 mph 1022.2mb 60f 60f
11:50am 6ft 8s 6s 16 18 mph 1022.4mb 60f 61f
10:50am 5.5ft 8s 5s 9 11 mph 1022.2mb 59f 61f
9:50am 6ft 7s 6s 13 16 mph 1021.8mb 60f 61f
8:50am 5ft 8s 6s 16 18 mph 1021.5mb 60f 60f
7:50am 6ft 8s 6s 13 18 mph 1021.5mb 60f 60f
6:50am 5ft 6s 5s 13 16 mph 1021.3mb 60f 60f
5:50am 5ft 7s 5s 13 18 mph 1020.9mb 60f 60f
4:50am 5ft 8s 5s 16 20 mph 1020.8mb 60f 60f
3:50am 5ft 8s 5s 16 20 mph 1020.7mb 60f 61f
2:50am 5ft 8s 5s 16 22 mph 1020.9mb 60f 60f
1:50am 5ft 7s 5s 16 18 mph 1021.1mb 61f 61f
12:50am 5.5ft 7s 5s 18 22 mph 1021.4mb 62f 61f
Tue 07/26 11:50pm 5.5ft 7s 5s 18 22 mph 1022mb 61f 61f
10:50pm 5.5ft 8s 5s 20 22 mph 1021.9mb 60f 60f
9:50pm 6ft 7s 5s 18 22 mph 1021.8mb 60f 60f
8:50pm 6ft 10s 6s 20 25 mph 1021.7mb 60f 60f
7:50pm 6ft 8s 6s 18 22 mph 1021.7mb 60f 60f
6:50pm 5ft 8s 6s 18 20 mph 1021.9mb 60f 60f
5:50pm 5.5ft 10s 6s 16 20 mph 1022mb 60f 61f
4:50pm 5.5ft 8s 6s 16 18 mph 1022.7mb 60f 60f
3:50pm 5ft 10s 6s 16 18 mph 1022.7mb 60f 61f
2:50pm 5.5ft 9s 6s 16 18 mph 1023.1mb 60f 59f
1:50pm 5ft 10s 6s 13 16 mph 1023.4mb 61f 61f
12:50pm 5ft 10s 6s 11 13 mph 1023.4mb 61f 61f
11:50am 5ft 10s 6s 13 16 mph 1023.3mb 62f 62f
10:50am 5.5ft 9s 6s 13 16 mph 1023.3mb 62f 61f
9:50am 5ft 10s 6s 13 18 mph 1023.4mb 62f 62f
8:50am 5.5ft 10s 6s 13 18 mph 1023.2mb 62f 61f
7:50am 5.5ft 11s 6s 13 18 mph 1022.9mb 62f 61f
6:50am 6ft 11s 6s 16 18 mph 1022.4mb 62f 61f
5:50am 5.5ft 11s 6s 16 20 mph 1022.2mb 62f 61f
4:50am 6ft 10s 6s 13 18 mph 1021.9mb 62f 61f
3:50am 5.5ft 10s 6s 13 20 mph 1021.9mb 62f 61f
2:50am 5.5ft 10s 6s 13 16 mph 1021.9mb 62f 60f
1:50am 6ft 11s 6s 13 16 mph 1021.9mb 63f 60f
12:50am 5.5ft 11s 6s 13 16 mph 1022mb 63f 60f